sensor_id;sensor_type;location;lat;lon;timestamp;temperature;humidity
68578;SHT31;61668;45.388;11.784;2022-12-01T00:00:40;7.26;69.98
68578;SHT31;61668;45.388;11.784;2022-12-01T00:03:06;7.28;70.28
68578;SHT31;61668;45.388;11.784;2022-12-01T00:05:31;7.28;70.27
68578;SHT31;61668;45.388;11.784;2022-12-01T00:07:57;7.28;70.24
68578;SHT31;61668;45.388;11.784;2022-12-01T00:10:23;7.27;70.26
68578;SHT31;61668;45.388;11.784;2022-12-01T00:12:53;7.26;70.42
68578;SHT31;61668;45.388;11.784;2022-12-01T00:15:31;7.23;70.59
68578;SHT31;61668;45.388;11.784;2022-12-01T00:18:01;7.22;70.62
68578;SHT31;61668;45.388;11.784;2022-12-01T00:20:31;7.19;70.67
68578;SHT31;61668;45.388;11.784;2022-12-01T00:22:58;7.17;70.71
68578;SHT31;61668;45.388;11.784;2022-12-01T00:25:25;7.16;70.74
68578;SHT31;61668;45.388;11.784;2022-12-01T00:27:51;7.15;70.86
68578;SHT31;61668;45.388;11.784;2022-12-01T00:30:18;7.14;71.06
68578;SHT31;61668;45.388;11.784;2022-12-01T00:32:45;7.14;71.22
68578;SHT31;61668;45.388;11.784;2022-12-01T00:35:11;7.15;71.30
68578;SHT31;61668;45.388;11.784;2022-12-01T00:37:39;7.16;71.40
68578;SHT31;61668;45.388;11.784;2022-12-01T00:40:06;7.17;71.40
68578;SHT31;61668;45.388;11.784;2022-12-01T00:42:32;7.20;71.53
68578;SHT31;61668;45.388;11.784;2022-12-01T00:44:58;7.21;71.62
68578;SHT31;61668;45.388;11.784;2022-12-01T00:47:24;7.24;71.71
68578;SHT31;61668;45.388;11.784;2022-12-01T00:49:49;7.25;71.76
68578;SHT31;61668;45.388;11.784;2022-12-01T00:52:16;7.25;71.89
68578;SHT31;61668;45.388;11.784;2022-12-01T00:54:43;7.26;71.77
68578;SHT31;61668;45.388;11.784;2022-12-01T00:57:09;7.27;71.72
68578;SHT31;61668;45.388;11.784;2022-12-01T00:59:35;7.29;71.51
68578;SHT31;61668;45.388;11.784;2022-12-01T01:02:01;7.29;71.36
68578;SHT31;61668;45.388;11.784;2022-12-01T01:04:28;7.29;71.32
68578;SHT31;61668;45.388;11.784;2022-12-01T01:06:55;7.29;71.36
68578;SHT31;61668;45.388;11.784;2022-12-01T01:09:20;7.28;71.30
68578;SHT31;61668;45.388;11.784;2022-12-01T01:11:46;7.26;71.31
68578;SHT31;61668;45.388;11.784;2022-12-01T01:14:11;7.23;71.32
68578;SHT31;61668;45.388;11.784;2022-12-01T01:16:37;7.20;71.40
68578;SHT31;61668;45.388;11.784;2022-12-01T01:19:02;7.18;71.43
68578;SHT31;61668;45.388;11.784;2022-12-01T01:21:28;7.16;71.51
68578;SHT31;61668;45.388;11.784;2022-12-01T01:23:53;7.14;71.53
68578;SHT31;61668;45.388;11.784;2022-12-01T01:26:20;7.15;71.50
68578;SHT31;61668;45.388;11.784;2022-12-01T01:28:52;7.17;71.47
68578;SHT31;61668;45.388;11.784;2022-12-01T01:31:26;7.23;71.40
68578;SHT31;61668;45.388;11.784;2022-12-01T01:33:54;7.27;71.36
68578;SHT31;61668;45.388;11.784;2022-12-01T01:36:21;7.32;71.40
68578;SHT31;61668;45.388;11.784;2022-12-01T01:38:48;7.34;71.43
68578;SHT31;61668;45.388;11.784;2022-12-01T01:41:18;7.36;71.50
68578;SHT31;61668;45.388;11.784;2022-12-01T01:49:02;7.31;71.64
68578;SHT31;61668;45.388;11.784;2022-12-01T01:51:37;7.27;71.70
68578;SHT31;61668;45.388;11.784;2022-12-01T01:56:48;7.22;71.86
68578;SHT31;61668;45.388;11.784;2022-12-01T01:59:18;7.22;71.84
68578;SHT31;61668;45.388;11.784;2022-12-01T02:01:50;7.24;71.90
68578;SHT31;61668;45.388;11.784;2022-12-01T02:04:33;7.25;72.04
68578;SHT31;61668;45.388;11.784;2022-12-01T02:07:10;7.24;72.14
68578;SHT31;61668;45.388;11.784;2022-12-01T02:09:38;7.24;72.28
68578;SHT31;61668;45.388;11.784;2022-12-01T02:12:08;7.25;72.36
68578;SHT31;61668;45.388;11.784;2022-12-01T02:40:33;7.24;73.00
68578;SHT31;61668;45.388;11.784;2022-12-01T02:48:24;7.30;73.10
68578;SHT31;61668;45.388;11.784;2022-12-01T02:50:55;7.32;73.10
68578;SHT31;61668;45.388;11.784;2022-12-01T02:53:27;7.31;73.16
68578;SHT31;61668;45.388;11.784;2022-12-01T02:55:54;7.29;73.29
68578;SHT31;61668;45.388;11.784;2022-12-01T02:58:22;7.26;73.33
68578;SHT31;61668;45.388;11.784;2022-12-01T03:01:31;7.23;73.42
68578;SHT31;61668;45.388;11.784;2022-12-01T03:09:13;7.07;73.78
68578;SHT31;61668;45.388;11.784;2022-12-01T03:11:55;7.06;73.81
68578;SHT31;61668;45.388;11.784;2022-12-01T03:14:55;7.09;73.82
68578;SHT31;61668;45.388;11.784;2022-12-01T03:17:56;7.13;73.90
68578;SHT31;61668;45.388;11.784;2022-12-01T03:23:24;7.13;73.91
68578;SHT31;61668;45.388;11.784;2022-12-01T03:25:55;7.11;73.99
68578;SHT31;61668;45.388;11.784;2022-12-01T03:28:24;7.09;73.99
68578;SHT31;61668;45.388;11.784;2022-12-01T03:30:58;7.05;74.00
68578;SHT31;61668;45.388;11.784;2022-12-01T03:33:30;7.00;74.01
68578;SHT31;61668;45.388;11.784;2022-12-01T03:38:34;6.93;74.07
68578;SHT31;61668;45.388;11.784;2022-12-01T03:41:04;6.93;74.08
68578;SHT31;61668;45.388;11.784;2022-12-01T03:43:40;6.90;74.00
68578;SHT31;61668;45.388;11.784;2022-12-01T03:49:00;6.85;73.95
68578;SHT31;61668;45.388;11.784;2022-12-01T03:51:38;6.79;74.01
68578;SHT31;61668;45.388;11.784;2022-12-01T03:54:13;6.73;73.98
68578;SHT31;61668;45.388;11.784;2022-12-01T03:57:08;6.66;74.09
68578;SHT31;61668;45.388;11.784;2022-12-01T03:59:39;6.58;74.16
68578;SHT31;61668;45.388;11.784;2022-12-01T04:02:07;6.50;74.27
68578;SHT31;61668;45.388;11.784;2022-12-01T04:04:32;6.40;74.30
68578;SHT31;61668;45.388;11.784;2022-12-01T04:06:59;6.30;74.41
68578;SHT31;61668;45.388;11.784;2022-12-01T04:09:24;6.22;74.53
68578;SHT31;61668;45.388;11.784;2022-12-01T04:11:50;6.17;74.60
68578;SHT31;61668;45.388;11.784;2022-12-01T04:14:34;6.11;74.75
68578;SHT31;61668;45.388;11.784;2022-12-01T04:17:00;6.07;75.03
68578;SHT31;61668;45.388;11.784;2022-12-01T04:19:25;6.04;75.23
68578;SHT31;61668;45.388;11.784;2022-12-01T04:21:50;6.03;75.41
68578;SHT31;61668;45.388;11.784;2022-12-01T04:24:16;6.03;75.40
68578;SHT31;61668;45.388;11.784;2022-12-01T04:26:41;6.00;75.40
68578;SHT31;61668;45.388;11.784;2022-12-01T04:29:08;5.93;75.49
68578;SHT31;61668;45.388;11.784;2022-12-01T04:31:35;5.85;75.65
68578;SHT31;61668;45.388;11.784;2022-12-01T04:34:01;5.78;75.79
68578;SHT31;61668;45.388;11.784;2022-12-01T04:36:31;5.73;75.80
68578;SHT31;61668;45.388;11.784;2022-12-01T04:38:58;5.72;75.84
68578;SHT31;61668;45.388;11.784;2022-12-01T04:41:24;5.71;75.90
68578;SHT31;61668;45.388;11.784;2022-12-01T04:43:53;5.72;75.94
68578;SHT31;61668;45.388;11.784;2022-12-01T04:46:19;5.70;76.01
68578;SHT31;61668;45.388;11.784;2022-12-01T04:48:46;5.69;76.09
68578;SHT31;61668;45.388;11.784;2022-12-01T04:51:12;5.67;76.19
68578;SHT31;61668;45.388;11.784;2022-12-01T04:53:37;5.63;76.24
68578;SHT31;61668;45.388;11.784;2022-12-01T04:56:03;5.57;76.26
68578;SHT31;61668;45.388;11.784;2022-12-01T04:58:30;5.50;76.36
68578;SHT31;61668;45.388;11.784;2022-12-01T05:01:04;5.43;76.48
68578;SHT31;61668;45.388;11.784;2022-12-01T05:03:36;5.38;76.57
68578;SHT31;61668;45.388;11.784;2022-12-01T05:06:09;5.38;76.61
68578;SHT31;61668;45.388;11.784;2022-12-01T05:08:40;5.38;76.62
68578;SHT31;61668;45.388;11.784;2022-12-01T05:11:06;5.40;76.62
68578;SHT31;61668;45.388;11.784;2022-12-01T05:13:41;5.40;76.63
68578;SHT31;61668;45.388;11.784;2022-12-01T05:16:11;5.39;76.70
68578;SHT31;61668;45.388;11.784;2022-12-01T05:18:39;5.36;76.68
68578;SHT31;61668;45.388;11.784;2022-12-01T05:21:06;5.31;76.72
68578;SHT31;61668;45.388;11.784;2022-12-01T05:23:35;5.25;76.80
68578;SHT31;61668;45.388;11.784;2022-12-01T05:26:03;5.20;76.81
68578;SHT31;61668;45.388;11.784;2022-12-01T05:28:31;5.13;76.93
68578;SHT31;61668;45.388;11.784;2022-12-01T05:30:57;5.08;77.11
68578;SHT31;61668;45.388;11.784;2022-12-01T05:33:23;5.05;77.19
68578;SHT31;61668;45.388;11.784;2022-12-01T05:35:50;5.05;77.22
68578;SHT31;61668;45.388;11.784;2022-12-01T05:38:16;5.06;77.20
68578;SHT31;61668;45.388;11.784;2022-12-01T05:40:48;5.07;77.18
68578;SHT31;61668;45.388;11.784;2022-12-01T05:43:16;5.07;77.18
68578;SHT31;61668;45.388;11.784;2022-12-01T05:45:42;5.07;77.16
68578;SHT31;61668;45.388;11.784;2022-12-01T05:48:08;5.04;77.14
68578;SHT31;61668;45.388;11.784;2022-12-01T05:50:33;5.00;77.18
68578;SHT31;61668;45.388;11.784;2022-12-01T05:53:03;4.99;77.19
68578;SHT31;61668;45.388;11.784;2022-12-01T05:55:29;4.94;77.19
68578;SHT31;61668;45.388;11.784;2022-12-01T05:57:54;4.90;77.18
68578;SHT31;61668;45.388;11.784;2022-12-01T06:00:20;4.85;77.10
68578;SHT31;61668;45.388;11.784;2022-12-01T06:02:45;4.80;77.20
68578;SHT31;61668;45.388;11.784;2022-12-01T06:05:11;4.77;77.19
68578;SHT31;61668;45.388;11.784;2022-12-01T06:07:36;4.73;77.20
68578;SHT31;61668;45.388;11.784;2022-12-01T06:10:04;4.71;77.21
68578;SHT31;61668;45.388;11.784;2022-12-01T06:12:31;4.70;77.23
68578;SHT31;61668;45.388;11.784;2022-12-01T06:14:57;4.68;77.29
68578;SHT31;61668;45.388;11.784;2022-12-01T06:17:22;4.69;77.39
68578;SHT31;61668;45.388;11.784;2022-12-01T06:19:48;4.71;77.41
68578;SHT31;61668;45.388;11.784;2022-12-01T06:22:14;4.72;77.40
68578;SHT31;61668;45.388;11.784;2022-12-01T06:24:39;4.70;77.39
68578;SHT31;61668;45.388;11.784;2022-12-01T06:27:04;4.70;77.44
68578;SHT31;61668;45.388;11.784;2022-12-01T06:29:30;4.67;77.50
68578;SHT31;61668;45.388;11.784;2022-12-01T06:31:55;4.62;77.50
68578;SHT31;61668;45.388;11.784;2022-12-01T06:34:21;4.56;77.58
68578;SHT31;61668;45.388;11.784;2022-12-01T06:36:46;4.53;77.69
68578;SHT31;61668;45.388;11.784;2022-12-01T06:39:14;4.50;77.70
68578;SHT31;61668;45.388;11.784;2022-12-01T06:41:41;4.49;77.70
68578;SHT31;61668;45.388;11.784;2022-12-01T06:44:08;4.51;77.78
68578;SHT31;61668;45.388;11.784;2022-12-01T06:46:34;4.57;77.80
68578;SHT31;61668;45.388;11.784;2022-12-01T06:48:59;4.64;77.82
68578;SHT31;61668;45.388;11.784;2022-12-01T06:51:25;4.69;77.88
68578;SHT31;61668;45.388;11.784;2022-12-01T06:53:54;4.72;78.00
68578;SHT31;61668;45.388;11.784;2022-12-01T06:56:19;4.73;78.00
68578;SHT31;61668;45.388;11.784;2022-12-01T06:58:47;4.75;78.04
68578;SHT31;61668;45.388;11.784;2022-12-01T07:01:14;4.76;78.08
68578;SHT31;61668;45.388;11.784;2022-12-01T07:03:41;4.76;78.00
68578;SHT31;61668;45.388;11.784;2022-12-01T07:06:07;4.77;78.00
68578;SHT31;61668;45.388;11.784;2022-12-01T07:08:33;4.75;78.05
68578;SHT31;61668;45.388;11.784;2022-12-01T07:11:00;4.75;78.23
68578;SHT31;61668;45.388;11.784;2022-12-01T07:13:28;4.79;78.29
68578;SHT31;61668;45.388;11.784;2022-12-01T07:15:54;4.83;78.21
68578;SHT31;61668;45.388;11.784;2022-12-01T07:18:19;4.88;78.30
68578;SHT31;61668;45.388;11.784;2022-12-01T07:20:45;4.94;78.34
68578;SHT31;61668;45.388;11.784;2022-12-01T07:23:11;5.01;78.32
68578;SHT31;61668;45.388;11.784;2022-12-01T07:25:36;5.07;78.38
68578;SHT31;61668;45.388;11.784;2022-12-01T07:28:02;5.15;78.30
68578;SHT31;61668;45.388;11.784;2022-12-01T07:30:27;5.25;78.16
68578;SHT31;61668;45.388;11.784;2022-12-01T07:32:53;5.36;78.18
68578;SHT31;61668;45.388;11.784;2022-12-01T07:35:18;5.44;78.12
68578;SHT31;61668;45.388;11.784;2022-12-01T07:37:44;5.52;78.26
68578;SHT31;61668;45.388;11.784;2022-12-01T07:40:10;5.62;78.27
68578;SHT31;61668;45.388;11.784;2022-12-01T07:42:39;5.72;78.17
68578;SHT31;61668;45.388;11.784;2022-12-01T07:45:06;5.83;78.07
68578;SHT31;61668;45.388;11.784;2022-12-01T07:47:32;5.93;77.98
68578;SHT31;61668;45.388;11.784;2022-12-01T07:49:57;6.00;77.79
68578;SHT31;61668;45.388;11.784;2022-12-01T07:52:23;6.07;77.59
68578;SHT31;61668;45.388;11.784;2022-12-01T07:54:48;6.14;77.47
68578;SHT31;61668;45.388;11.784;2022-12-01T07:57:14;6.24;77.41
68578;SHT31;61668;45.388;11.784;2022-12-01T07:59:39;6.37;77.16
68578;SHT31;61668;45.388;11.784;2022-12-01T08:02:06;6.55;76.98
68578;SHT31;61668;45.388;11.784;2022-12-01T08:04:34;6.81;76.71
68578;SHT31;61668;45.388;11.784;2022-12-01T08:06:59;7.09;76.38
68578;SHT31;61668;45.388;11.784;2022-12-01T08:09:24;7.39;75.87
68578;SHT31;61668;45.388;11.784;2022-12-01T08:11:50;7.71;75.27
68578;SHT31;61668;45.388;11.784;2022-12-01T08:14:15;8.05;74.83
68578;SHT31;61668;45.388;11.784;2022-12-01T08:16:41;8.38;73.88
68578;SHT31;61668;45.388;11.784;2022-12-01T08:19:08;8.62;72.96
68578;SHT31;61668;45.388;11.784;2022-12-01T08:21:35;8.81;72.22
68578;SHT31;61668;45.388;11.784;2022-12-01T08:24:02;9.00;71.59
68578;SHT31;61668;45.388;11.784;2022-12-01T08:26:29;9.20;71.01
68578;SHT31;61668;45.388;11.784;2022-12-01T08:28:55;9.39;70.52
68578;SHT31;61668;45.388;11.784;2022-12-01T08:31:26;9.54;70.11
68578;SHT31;61668;45.388;11.784;2022-12-01T08:33:55;9.69;69.59
68578;SHT31;61668;45.388;11.784;2022-12-01T08:36:21;9.88;69.25
68578;SHT31;61668;45.388;11.784;2022-12-01T08:38:50;10.10;68.62
68578;SHT31;61668;45.388;11.784;2022-12-01T08:41:18;10.40;68.34
68578;SHT31;61668;45.388;11.784;2022-12-01T08:43:45;10.73;67.97
68578;SHT31;61668;45.388;11.784;2022-12-01T08:46:11;11.07;67.02
68578;SHT31;61668;45.388;11.784;2022-12-01T08:48:38;11.45;65.98
68578;SHT31;61668;45.388;11.784;2022-12-01T08:53:39;12.17;64.54
68578;SHT31;61668;45.388;11.784;2022-12-01T08:56:10;12.52;63.63
68578;SHT31;61668;45.388;11.784;2022-12-01T08:58:43;12.83;62.73
68578;SHT31;61668;45.388;11.784;2022-12-01T09:01:10;13.15;61.92
68578;SHT31;61668;45.388;11.784;2022-12-01T09:03:38;13.42;61.02
68578;SHT31;61668;45.388;11.784;2022-12-01T09:08:34;13.84;59.72
68578;SHT31;61668;45.388;11.784;2022-12-01T09:11:02;14.00;59.43
68578;SHT31;61668;45.388;11.784;2022-12-01T09:13:33;14.18;58.87
68578;SHT31;61668;45.388;11.784;2022-12-01T09:16:01;14.40;58.26
68578;SHT31;61668;45.388;11.784;2022-12-01T09:18:32;14.63;57.56
68578;SHT31;61668;45.388;11.784;2022-12-01T09:20:59;14.86;56.80
68578;SHT31;61668;45.388;11.784;2022-12-01T09:23:25;15.09;56.15
68578;SHT31;61668;45.388;11.784;2022-12-01T09:25:51;15.32;55.82
68578;SHT31;61668;45.388;11.784;2022-12-01T09:28:18;15.55;54.94
68578;SHT31;61668;45.388;11.784;2022-12-01T09:30:44;15.72;54.54
68578;SHT31;61668;45.388;11.784;2022-12-01T09:33:11;15.88;54.01
68578;SHT31;61668;45.388;11.784;2022-12-01T09:35:37;15.97;53.03
68578;SHT31;61668;45.388;11.784;2022-12-01T09:38:03;15.97;52.67
68578;SHT31;61668;45.388;11.784;2022-12-01T09:40:39;15.92;52.02
68578;SHT31;61668;45.388;11.784;2022-12-01T09:43:12;15.82;51.40
68578;SHT31;61668;45.388;11.784;2022-12-01T09:45:47;15.67;51.31
68578;SHT31;61668;45.388;11.784;2022-12-01T09:48:28;15.46;51.00
68578;SHT31;61668;45.388;11.784;2022-12-01T09:51:08;15.22;51.11
68578;SHT31;61668;45.388;11.784;2022-12-01T09:53:47;14.98;51.61
68578;SHT31;61668;45.388;11.784;2022-12-01T09:56:18;14.77;51.91
68578;SHT31;61668;45.388;11.784;2022-12-01T09:59:01;14.60;51.84
68578;SHT31;61668;45.388;11.784;2022-12-01T10:01:41;14.39;51.95
68578;SHT31;61668;45.388;11.784;2022-12-01T10:04:16;14.22;52.47
68578;SHT31;61668;45.388;11.784;2022-12-01T10:12:05;13.73;53.34
68578;SHT31;61668;45.388;11.784;2022-12-01T10:14:37;13.60;53.76
68578;SHT31;61668;45.388;11.784;2022-12-01T10:20:21;13.38;54.39
68578;SHT31;61668;45.388;11.784;2022-12-01T10:25:56;13.23;54.59
68578;SHT31;61668;45.388;11.784;2022-12-01T10:31:20;13.16;54.71
68578;SHT31;61668;45.388;11.784;2022-12-01T10:36:31;13.06;54.39
68578;SHT31;61668;45.388;11.784;2022-12-01T10:38:59;13.03;54.28
68578;SHT31;61668;45.388;11.784;2022-12-01T10:41:28;12.99;53.94
68578;SHT31;61668;45.388;11.784;2022-12-01T10:43:58;12.94;53.54
68578;SHT31;61668;45.388;11.784;2022-12-01T10:49:14;12.86;53.65
68578;SHT31;61668;45.388;11.784;2022-12-01T10:51:52;12.85;53.60
68578;SHT31;61668;45.388;11.784;2022-12-01T10:54:29;12.83;53.46
68578;SHT31;61668;45.388;11.784;2022-12-01T10:56:58;12.84;53.70
68578;SHT31;61668;45.388;11.784;2022-12-01T11:01:53;12.84;53.45
68578;SHT31;61668;45.388;11.784;2022-12-01T11:06:53;12.92;53.63
68578;SHT31;61668;45.388;11.784;2022-12-01T11:09:20;12.94;53.50
68578;SHT31;61668;45.388;11.784;2022-12-01T11:12:00;12.95;53.15
68578;SHT31;61668;45.388;11.784;2022-12-01T11:15:01;12.95;52.88
68578;SHT31;61668;45.388;11.784;2022-12-01T11:19:55;12.96;51.76
68578;SHT31;61668;45.388;11.784;2022-12-01T11:22:23;12.94;50.96
68578;SHT31;61668;45.388;11.784;2022-12-01T11:24:56;12.96;51.60
68578;SHT31;61668;45.388;11.784;2022-12-01T11:27:29;12.99;51.50
68578;SHT31;61668;45.388;11.784;2022-12-01T11:30:07;13.02;51.32
68578;SHT31;61668;45.388;11.784;2022-12-01T11:32:54;13.07;51.18
68578;SHT31;61668;45.388;11.784;2022-12-01T11:35:25;13.10;51.09
68578;SHT31;61668;45.388;11.784;2022-12-01T11:38:01;13.14;50.31
68578;SHT31;61668;45.388;11.784;2022-12-01T11:43:01;13.19;50.72
68578;SHT31;61668;45.388;11.784;2022-12-01T11:50:40;13.25;51.01
68578;SHT31;61668;45.388;11.784;2022-12-01T11:53:27;13.26;51.22
68578;SHT31;61668;45.388;11.784;2022-12-01T11:56:12;13.25;50.83
68578;SHT31;61668;45.388;11.784;2022-12-01T11:59:02;13.23;50.89
68578;SHT31;61668;45.388;11.784;2022-12-01T12:07:21;13.18;50.54
68578;SHT31;61668;45.388;11.784;2022-12-01T12:12:43;13.12;50.86
68578;SHT31;61668;45.388;11.784;2022-12-01T12:30:31;12.91;51.27
68578;SHT31;61668;45.388;11.784;2022-12-01T12:33:25;12.88;51.32
68578;SHT31;61668;45.388;11.784;2022-12-01T12:42:45;12.81;51.61
68578;SHT31;61668;45.388;11.784;2022-12-01T12:54:16;12.74;51.41
68578;SHT31;61668;45.388;11.784;2022-12-01T12:56:49;12.72;51.60
68578;SHT31;61668;45.388;11.784;2022-12-01T12:59:47;12.70;51.53
68578;SHT31;61668;45.388;11.784;2022-12-01T13:02:25;12.70;51.31
68578;SHT31;61668;45.388;11.784;2022-12-01T13:05:21;12.68;51.54
68578;SHT31;61668;45.388;11.784;2022-12-01T13:10:56;12.66;51.65
68578;SHT31;61668;45.388;11.784;2022-12-01T13:16:14;12.68;52.45
68578;SHT31;61668;45.388;11.784;2022-12-01T13:18:52;12.67;52.41
68578;SHT31;61668;45.388;11.784;2022-12-01T13:21:27;12.65;52.34
68578;SHT31;61668;45.388;11.784;2022-12-01T13:23:59;12.63;52.66
68578;SHT31;61668;45.388;11.784;2022-12-01T13:26:26;12.60;52.96
68578;SHT31;61668;45.388;11.784;2022-12-01T13:28:53;12.55;52.53
68578;SHT31;61668;45.388;11.784;2022-12-01T13:31:20;12.51;52.75
68578;SHT31;61668;45.388;11.784;2022-12-01T13:33:54;12.47;53.06
68578;SHT31;61668;45.388;11.784;2022-12-01T13:36:29;12.44;53.08
68578;SHT31;61668;45.388;11.784;2022-12-01T13:41:25;12.36;53.19
68578;SHT31;61668;45.388;11.784;2022-12-01T13:44:07;12.31;53.26
68578;SHT31;61668;45.388;11.784;2022-12-01T13:47:03;12.27;53.19
68578;SHT31;61668;45.388;11.784;2022-12-01T13:49:39;12.24;53.45
68578;SHT31;61668;45.388;11.784;2022-12-01T13:57:42;12.15;54.18
68578;SHT31;61668;45.388;11.784;2022-12-01T14:00:22;12.12;54.30
68578;SHT31;61668;45.388;11.784;2022-12-01T14:16:49;11.98;55.59
68578;SHT31;61668;45.388;11.784;2022-12-01T14:19:25;11.96;55.97
68578;SHT31;61668;45.388;11.784;2022-12-01T14:21:52;11.94;56.09
68578;SHT31;61668;45.388;11.784;2022-12-01T14:24:22;11.92;56.03
68578;SHT31;61668;45.388;11.784;2022-12-01T14:26:52;11.89;56.27
68578;SHT31;61668;45.388;11.784;2022-12-01T14:29:29;11.85;56.51
68578;SHT31;61668;45.388;11.784;2022-12-01T14:32:19;11.82;56.63
68578;SHT31;61668;45.388;11.784;2022-12-01T14:34:44;11.79;57.05
68578;SHT31;61668;45.388;11.784;2022-12-01T14:37:12;11.76;56.96
68578;SHT31;61668;45.388;11.784;2022-12-01T14:45:16;11.63;56.99
68578;SHT31;61668;45.388;11.784;2022-12-01T14:47:50;11.61;57.09
68578;SHT31;61668;45.388;11.784;2022-12-01T14:51:04;11.56;57.11
68578;SHT31;61668;45.388;11.784;2022-12-01T14:53:23;11.48;57.32
68578;SHT31;61668;45.388;11.784;2022-12-01T14:55:58;11.41;57.63
68578;SHT31;61668;45.388;11.784;2022-12-01T14:58:32;11.34;57.86
68578;SHT31;61668;45.388;11.784;2022-12-01T15:01:00;11.28;58.06
68578;SHT31;61668;45.388;11.784;2022-12-01T15:03:40;11.23;58.30
68578;SHT31;61668;45.388;11.784;2022-12-01T15:06:09;11.17;58.50
68578;SHT31;61668;45.388;11.784;2022-12-01T15:08:42;11.12;58.73
68578;SHT31;61668;45.388;11.784;2022-12-01T15:11:21;11.06;58.97
68578;SHT31;61668;45.388;11.784;2022-12-01T15:13:53;11.00;59.13
68578;SHT31;61668;45.388;11.784;2022-12-01T15:16:21;10.94;59.44
68578;SHT31;61668;45.388;11.784;2022-12-01T15:18:50;10.88;59.63
68578;SHT31;61668;45.388;11.784;2022-12-01T15:21:27;10.82;59.93
68578;SHT31;61668;45.388;11.784;2022-12-01T15:23:59;10.75;60.15
68578;SHT31;61668;45.388;11.784;2022-12-01T15:26:44;10.70;60.49
68578;SHT31;61668;45.388;11.784;2022-12-01T15:31:44;10.56;61.08
68578;SHT31;61668;45.388;11.784;2022-12-01T15:34:30;10.50;61.43
68578;SHT31;61668;45.388;11.784;2022-12-01T15:37:04;10.43;61.58
68578;SHT31;61668;45.388;11.784;2022-12-01T15:39:35;10.36;61.71
68578;SHT31;61668;45.388;11.784;2022-12-01T15:42:14;10.31;61.87
68578;SHT31;61668;45.388;11.784;2022-12-01T15:44:57;10.27;62.02
68578;SHT31;61668;45.388;11.784;2022-12-01T15:50:30;10.19;62.40
68578;SHT31;61668;45.388;11.784;2022-12-01T15:53:05;10.16;62.64
68578;SHT31;61668;45.388;11.784;2022-12-01T15:55:45;10.13;62.72
68578;SHT31;61668;45.388;11.784;2022-12-01T15:58:23;10.08;62.77
68578;SHT31;61668;45.388;11.784;2022-12-01T16:03:44;9.95;63.17
68578;SHT31;61668;45.388;11.784;2022-12-01T16:06:31;9.88;63.41
68578;SHT31;61668;45.388;11.784;2022-12-01T16:09:01;9.82;63.73
68578;SHT31;61668;45.388;11.784;2022-12-01T16:12:01;9.75;64.09
68578;SHT31;61668;45.388;11.784;2022-12-01T16:15:04;9.66;64.50
68578;SHT31;61668;45.388;11.784;2022-12-01T16:17:50;9.58;64.70
68578;SHT31;61668;45.388;11.784;2022-12-01T16:20:31;9.51;64.98
68578;SHT31;61668;45.388;11.784;2022-12-01T16:23:19;9.45;65.10
68578;SHT31;61668;45.388;11.784;2022-12-01T16:25:49;9.38;65.27
68578;SHT31;61668;45.388;11.784;2022-12-01T16:28:25;9.36;65.37
68578;SHT31;61668;45.388;11.784;2022-12-01T16:30:56;9.33;65.55
68578;SHT31;61668;45.388;11.784;2022-12-01T16:33:23;9.33;65.65
68578;SHT31;61668;45.388;11.784;2022-12-01T16:35:51;9.33;65.78
68578;SHT31;61668;45.388;11.784;2022-12-01T16:38:21;9.34;65.89
68578;SHT31;61668;45.388;11.784;2022-12-01T16:40:51;9.33;65.99
68578;SHT31;61668;45.388;11.784;2022-12-01T16:43:20;9.31;66.04
68578;SHT31;61668;45.388;11.784;2022-12-01T16:45:48;9.28;66.24
68578;SHT31;61668;45.388;11.784;2022-12-01T16:48:20;9.25;66.42
68578;SHT31;61668;45.388;11.784;2022-12-01T16:50:46;9.22;66.65
68578;SHT31;61668;45.388;11.784;2022-12-01T16:53:13;9.16;66.79
68578;SHT31;61668;45.388;11.784;2022-12-01T16:55:41;9.10;66.84
68578;SHT31;61668;45.388;11.784;2022-12-01T16:58:12;9.03;67.09
68578;SHT31;61668;45.388;11.784;2022-12-01T17:00:38;8.95;67.22
68578;SHT31;61668;45.388;11.784;2022-12-01T17:03:03;8.87;67.40
68578;SHT31;61668;45.388;11.784;2022-12-01T17:05:30;8.77;67.48
68578;SHT31;61668;45.388;11.784;2022-12-01T17:07:56;8.70;67.60
68578;SHT31;61668;45.388;11.784;2022-12-01T17:10:21;8.63;67.86
68578;SHT31;61668;45.388;11.784;2022-12-01T17:12:48;8.59;67.99
68578;SHT31;61668;45.388;11.784;2022-12-01T17:15:14;8.56;68.15
68578;SHT31;61668;45.388;11.784;2022-12-01T17:17:40;8.53;68.39
68578;SHT31;61668;45.388;11.784;2022-12-01T17:20:06;8.50;68.52
68578;SHT31;61668;45.388;11.784;2022-12-01T17:22:33;8.49;68.66
68578;SHT31;61668;45.388;11.784;2022-12-01T17:24:59;8.47;68.85
68578;SHT31;61668;45.388;11.784;2022-12-01T17:27:26;8.45;68.94
68578;SHT31;61668;45.388;11.784;2022-12-01T17:29:53;8.42;69.06
68578;SHT31;61668;45.388;11.784;2022-12-01T17:32:19;8.37;69.15
68578;SHT31;61668;45.388;11.784;2022-12-01T17:34:45;8.31;69.32
68578;SHT31;61668;45.388;11.784;2022-12-01T17:37:11;8.24;69.56
68578;SHT31;61668;45.388;11.784;2022-12-01T17:39:37;8.16;69.79
68578;SHT31;61668;45.388;11.784;2022-12-01T17:42:02;8.10;69.90
68578;SHT31;61668;45.388;11.784;2022-12-01T17:44:28;8.06;70.00
68578;SHT31;61668;45.388;11.784;2022-12-01T17:46:53;8.05;70.08
68578;SHT31;61668;45.388;11.784;2022-12-01T17:49:19;8.06;70.11
68578;SHT31;61668;45.388;11.784;2022-12-01T17:51:44;8.06;70.17
68578;SHT31;61668;45.388;11.784;2022-12-01T17:54:10;8.05;70.35
68578;SHT31;61668;45.388;11.784;2022-12-01T17:56:35;8.04;70.40
68578;SHT31;61668;45.388;11.784;2022-12-01T17:59:01;8.02;70.40
68578;SHT31;61668;45.388;11.784;2022-12-01T18:01:26;8.00;70.45
68578;SHT31;61668;45.388;11.784;2022-12-01T18:03:53;7.96;70.62
68578;SHT31;61668;45.388;11.784;2022-12-01T18:06:18;7.93;70.69
68578;SHT31;61668;45.388;11.784;2022-12-01T18:08:45;7.90;70.61
68578;SHT31;61668;45.388;11.784;2022-12-01T18:11:12;7.85;70.69
68578;SHT31;61668;45.388;11.784;2022-12-01T18:13:41;7.81;70.85
68578;SHT31;61668;45.388;11.784;2022-12-01T18:18:43;7.73;71.11
68578;SHT31;61668;45.388;11.784;2022-12-01T18:21:13;7.75;71.22
68578;SHT31;61668;45.388;11.784;2022-12-01T18:23:46;7.77;71.49
68578;SHT31;61668;45.388;11.784;2022-12-01T18:26:14;7.81;71.52
68578;SHT31;61668;45.388;11.784;2022-12-01T18:28:40;7.85;71.63
68578;SHT31;61668;45.388;11.784;2022-12-01T18:31:06;7.89;71.70
68578;SHT31;61668;45.388;11.784;2022-12-01T18:33:35;7.92;71.70
68578;SHT31;61668;45.388;11.784;2022-12-01T18:36:03;7.94;71.79
68578;SHT31;61668;45.388;11.784;2022-12-01T18:38:33;7.95;71.76
68578;SHT31;61668;45.388;11.784;2022-12-01T18:40:59;7.93;71.73